Time;durP1;ratioP1;P1;durP2;ratioP2;P2;SDS_P1;SDS_P2;PMS_P1;PMS_P2;Temp;Humidity;BMP_temperature;BMP_pressure;BME280_temperature;BME280_humidity;BME280_pressure;Samples;Min_cycle;Max_cycle;Signal;HPM_P1;HPM_P2
2023/10/26 00:01:25;;;;;;;3.20;1.90;;;;;;;;;;5008478;28;20050;-80
2023/10/26 00:03:52;;;;;;;2.63;1.92;;;;;;;;;;4993099;28;20051;-80
2023/10/26 00:06:20;;;;;;;2.53;2.25;;;;;;;;;;4993297;28;20054;-79
2023/10/26 00:08:47;;;;;;;4.20;2.42;;;;;;;;;;5007905;28;20053;-79
2023/10/26 00:11:15;;;;;;;2.40;2.20;;;;;;;;;;4993058;28;20042;-79
2023/10/26 00:13:42;;;;;;;2.65;2.47;;;;;;;;;;4992851;28;20100;-79
2023/10/26 00:16:09;;;;;;;3.28;2.60;;;;;;;;;;5008222;28;20065;-79
2023/10/26 00:18:36;;;;;;;3.63;2.97;;;;;;;;;;5008187;28;20065;-79
2023/10/26 00:21:04;;;;;;;3.78;2.65;;;;;;;;;;5007996;28;20054;-80
2023/10/26 00:23:31;;;;;;;3.20;3.10;;;;;;;;;;4992996;28;20051;-80
2023/10/26 00:25:58;;;;;;;3.53;3.33;;;;;;;;;;4993407;28;20058;-79
2023/10/26 00:28:25;;;;;;;5.05;4.55;;;;;;;;;;4996943;28;20493;-79
2023/10/26 00:30:53;;;;;;;2.90;2.70;;;;;;;;;;4996800;28;20046;-80
2023/10/26 00:33:20;;;;;;;0.82;0.60;;;;;;;;;;4996716;28;20061;-79
2023/10/26 00:35:47;;;;;;;0.20;0.20;;;;;;;;;;5011746;28;20120;-80
2023/10/26 00:38:15;;;;;;;1.30;0.40;;;;;;;;;;5011756;28;20050;-80
2023/10/26 00:40:42;;;;;;;0.70;0.35;;;;;;;;;;4996492;28;20050;-79
2023/10/26 00:43:18;;;;;;;0.57;0.10;;;;;;;;;;5011520;28;20109;-80
2023/10/26 00:45:46;;;;;;;0.38;0.20;;;;;;;;;;5011429;28;20054;-79
2023/10/26 00:48:14;;;;;;;0.57;0.17;;;;;;;;;;5011276;28;20513;-80
2023/10/26 00:50:42;;;;;;;0.57;0.13;;;;;;;;;;4996297;28;20077;-80
2023/10/26 00:53:10;;;;;;;0.98;0.38;;;;;;;;;;4996364;28;20057;-79
2023/10/26 00:55:39;;;;;;;2.83;0.20;;;;;;;;;;5011206;28;20054;-80
2023/10/26 00:58:07;;;;;;;0.63;0.40;;;;;;;;;;5011201;28;20057;-80
2023/10/26 01:00:34;;;;;;;2.08;0.25;;;;;;;;;;5011249;28;20058;-80
2023/10/26 01:03:02;;;;;;;2.13;0.20;;;;;;;;;;4996383;28;20058;-79
2023/10/26 01:05:29;;;;;;;0.20;0.20;;;;;;;;;;5011318;28;20074;-79
2023/10/26 01:07:56;;;;;;;0.93;0.30;;;;;;;;;;5010916;28;20080;-79
2023/10/26 01:10:24;;;;;;;0.93;0.20;;;;;;;;;;4995862;28;20046;-78
2023/10/26 01:12:51;;;;;;;0.20;0.20;;;;;;;;;;5000157;28;20042;-82
2023/10/26 01:15:19;;;;;;;0.30;0.30;;;;;;;;;;5001428;28;20050;-80
2023/10/26 01:17:46;;;;;;;1.48;0.17;;;;;;;;;;5000611;28;20513;-80
2023/10/26 01:20:17;;;;;;;2.35;0.30;;;;;;;;;;5015381;28;20073;-80
2023/10/26 01:22:44;;;;;;;2.05;0.40;;;;;;;;;;5016128;28;20050;-80
2023/10/26 01:25:11;;;;;;;0.38;0.20;;;;;;;;;;5000382;28;20046;-79
2023/10/26 01:27:39;;;;;;;0.28;0.22;;;;;;;;;;5000704;28;20061;-80
2023/10/26 01:30:06;;;;;;;0.30;0.30;;;;;;;;;;5015774;28;20110;-80
2023/10/26 01:32:34;;;;;;;0.60;0.40;;;;;;;;;;5000433;28;20504;-80
2023/10/26 01:35:01;;;;;;;0.25;0.25;;;;;;;;;;5015291;28;20523;-79
2023/10/26 01:37:28;;;;;;;1.30;0.30;;;;;;;;;;5013383;28;20109;-81
2023/10/26 01:39:55;;;;;;;0.55;0.20;;;;;;;;;;5013592;28;20050;-79
2023/10/26 01:42:22;;;;;;;0.28;0.28;;;;;;;;;;5013133;28;20054;-80
2023/10/26 01:44:50;;;;;;;1.35;0.40;;;;;;;;;;4999237;28;20050;-81
2023/10/26 01:47:18;;;;;;;1.10;0.30;;;;;;;;;;4998609;28;20050;-81
2023/10/26 01:49:45;;;;;;;1.02;0.30;;;;;;;;;;4998803;28;20468;-79
2023/10/26 01:52:12;;;;;;;0.30;0.30;;;;;;;;;;5013100;28;20101;-80
2023/10/26 01:54:39;;;;;;;0.47;0.30;;;;;;;;;;4997121;28;20477;-79
2023/10/26 01:57:06;;;;;;;0.38;0.38;;;;;;;;;;5012469;28;20117;-80
2023/10/26 01:59:34;;;;;;;1.98;0.25;;;;;;;;;;5011701;28;20102;-79
2023/10/26 02:02:01;;;;;;;0.40;0.40;;;;;;;;;;5011595;28;20054;-80
2023/10/26 02:04:28;;;;;;;0.80;0.50;;;;;;;;;;5011979;28;20469;-79
2023/10/26 02:06:55;;;;;;;0.35;0.10;;;;;;;;;;4996875;28;20054;-80
2023/10/26 02:09:23;;;;;;;1.58;0.22;;;;;;;;;;5011340;28;20129;-80
2023/10/26 02:11:50;;;;;;;1.23;0.30;;;;;;;;;;4996099;28;20046;-80
2023/10/26 02:14:17;;;;;;;0.25;0.25;;;;;;;;;;4996798;28;20043;-80
2023/10/26 02:16:44;;;;;;;0.50;0.50;;;;;;;;;;4995791;28;20054;-80
2023/10/26 02:19:12;;;;;;;0.20;0.20;;;;;;;;;;4996176;28;20054;-80
2023/10/26 02:21:41;;;;;;;0.40;0.30;;;;;;;;;;4995621;28;20120;-80
2023/10/26 02:24:08;;;;;;;0.20;0.20;;;;;;;;;;5010561;28;20109;-80
2023/10/26 02:26:36;;;;;;;1.35;0.30;;;;;;;;;;4995688;28;20141;-80
2023/10/26 02:29:03;;;;;;;0.43;0.40;;;;;;;;;;5010163;28;20058;-79
2023/10/26 02:31:30;;;;;;;0.17;0.17;;;;;;;;;;5010653;28;20054;-79
2023/10/26 02:33:57;;;;;;;4.13;0.30;;;;;;;;;;4995130;28;20553;-79
2023/10/26 02:36:25;;;;;;;1.48;0.50;;;;;;;;;;5010252;28;20042;-79
2023/10/26 02:38:52;;;;;;;5.03;0.30;;;;;;;;;;4994882;28;20052;-79
2023/10/26 02:41:19;;;;;;;0.32;0.32;;;;;;;;;;5009682;28;20072;-79
2023/10/26 02:43:46;;;;;;;0.55;0.30;;;;;;;;;;4994308;28;20081;-79
2023/10/26 02:46:14;;;;;;;2.38;0.20;;;;;;;;;;5009820;28;20493;-78
2023/10/26 02:48:41;;;;;;;0.30;0.30;;;;;;;;;;4994332;28;20113;-79
2023/10/26 02:51:08;;;;;;;1.75;0.40;;;;;;;;;;4993487;28;20046;-79
2023/10/26 02:53:35;;;;;;;1.95;0.32;;;;;;;;;;4994621;28;20054;-79
2023/10/26 02:56:03;;;;;;;0.40;0.40;;;;;;;;;;5009623;28;20104;-79
2023/10/26 02:58:30;;;;;;;0.30;0.30;;;;;;;;;;4994455;28;20109;-79
2023/10/26 03:00:57;;;;;;;1.42;0.40;;;;;;;;;;4993960;28;20104;-79
2023/10/26 03:03:25;;;;;;;1.75;0.60;;;;;;;;;;5009285;28;20042;-79
2023/10/26 03:05:52;;;;;;;0.32;0.30;;;;;;;;;;5008913;28;20046;-80
2023/10/26 03:08:20;;;;;;;0.52;0.30;;;;;;;;;;5009096;28;20042;-79
2023/10/26 03:10:47;;;;;;;1.33;0.22;;;;;;;;;;5008613;28;20042;-78
2023/10/26 03:13:14;;;;;;;1.42;0.45;;;;;;;;;;5009030;28;20468;-79
2023/10/26 03:15:41;;;;;;;2.33;0.35;;;;;;;;;;4994077;28;20497;-79
2023/10/26 03:18:09;;;;;;;2.40;0.32;;;;;;;;;;5008451;28;20057;-79
2023/10/26 03:20:36;;;;;;;0.20;0.20;;;;;;;;;;5008839;28;20058;-79
2023/10/26 03:23:04;;;;;;;0.52;0.40;;;;;;;;;;5009945;28;20058;-79
2023/10/26 03:25:31;;;;;;;0.45;0.30;;;;;;;;;;4995054;28;20050;-79
2023/10/26 03:27:59;;;;;;;0.20;0.20;;;;;;;;;;5008748;28;20480;-78
2023/10/26 03:30:27;;;;;;;3.80;1.05;;;;;;;;;;4993439;28;20077;-80
2023/10/26 03:32:55;;;;;;;0.85;0.30;;;;;;;;;;4993473;28;20046;-79
2023/10/26 03:35:23;;;;;;;0.77;0.28;;;;;;;;;;5008493;28;20065;-80
2023/10/26 03:37:50;;;;;;;0.85;0.30;;;;;;;;;;4993289;28;20100;-80
2023/10/26 03:40:17;;;;;;;0.40;0.30;;;;;;;;;;4993696;28;20109;-79
2023/10/26 03:42:45;;;;;;;0.57;0.20;;;;;;;;;;5007937;28;20109;-78
2023/10/26 03:45:12;;;;;;;0.25;0.22;;;;;;;;;;4993266;28;20128;-78
2023/10/26 03:47:41;;;;;;;0.95;0.25;;;;;;;;;;5008508;28;20101;-79
2023/10/26 03:50:08;;;;;;;0.20;0.20;;;;;;;;;;4993559;28;20177;-79
2023/10/26 03:52:36;;;;;;;1.95;0.20;;;;;;;;;;4993205;28;20203;-81
2023/10/26 03:55:04;;;;;;;0.50;0.30;;;;;;;;;;5008228;28;20050;-78
2023/10/26 03:57:33;;;;;;;0.30;0.20;;;;;;;;;;4993246;28;20051;-78
2023/10/26 04:00:00;;;;;;;0.15;0.15;;;;;;;;;;5008136;28;20145;-80
2023/10/26 04:02:28;;;;;;;1.88;0.10;;;;;;;;;;5007608;28;20050;-80
2023/10/26 04:04:55;;;;;;;0.20;0.20;;;;;;;;;;5007855;28;20054;-78
2023/10/26 04:07:23;;;;;;;0.85;0.10;;;;;;;;;;4993328;28;20050;-79
2023/10/26 04:09:51;;;;;;;0.15;0.15;;;;;;;;;;5008026;28;20425;-79
2023/10/26 04:12:18;;;;;;;1.40;0.20;;;;;;;;;;5007937;28;20046;-79
2023/10/26 04:14:46;;;;;;;0.20;0.20;;;;;;;;;;4993018;28;20050;-79
2023/10/26 04:17:15;;;;;;;0.88;0.10;;;;;;;;;;5008078;28;20069;-80
2023/10/26 04:19:42;;;;;;;0.65;0.30;;;;;;;;;;5007774;28;20050;-78
2023/10/26 04:22:10;;;;;;;0.32;0.32;;;;;;;;;;5007813;28;20116;-78
2023/10/26 04:24:37;;;;;;;0.98;0.38;;;;;;;;;;4992661;28;20434;-79
2023/10/26 04:27:04;;;;;;;2.65;0.35;;;;;;;;;;4992745;28;20417;-80
2023/10/26 04:29:31;;;;;;;2.53;0.20;;;;;;;;;;5007984;28;20513;-79
2023/10/26 04:31:59;;;;;;;0.32;0.32;;;;;;;;;;4992654;28;20132;-80
2023/10/26 04:34:26;;;;;;;1.75;0.60;;;;;;;;;;4992944;28;20077;-80
2023/10/26 04:36:56;;;;;;;1.77;0.70;;;;;;;;;;5007279;28;20050;-80
2023/10/26 04:39:23;;;;;;;0.40;0.40;;;;;;;;;;4995152;28;20054;-79
2023/10/26 04:41:51;;;;;;;0.40;0.40;;;;;;;;;;4995111;28;20050;-80
2023/10/26 04:44:18;;;;;;;0.82;0.60;;;;;;;;;;5011153;28;20054;-79
2023/10/26 04:46:45;;;;;;;0.30;0.30;;;;;;;;;;5009871;28;20057;-79
2023/10/26 04:49:13;;;;;;;1.00;1.00;;;;;;;;;;4995169;28;20108;-80
2023/10/26 04:51:40;;;;;;;1.25;1.25;;;;;;;;;;5010681;28;20125;-81
2023/10/26 04:54:07;;;;;;;0.70;0.70;;;;;;;;;;5010823;28;20042;-79
2023/10/26 04:56:34;;;;;;;0.47;0.47;;;;;;;;;;5010788;28;20050;-79
2023/10/26 04:59:02;;;;;;;0.50;0.50;;;;;;;;;;4987593;28;20124;-83
2023/10/26 05:01:29;;;;;;;0.63;0.63;;;;;;;;;;4995635;28;20054;-82
2023/10/26 05:03:56;;;;;;;0.80;0.80;;;;;;;;;;5010476;28;20497;-80
2023/10/26 05:06:23;;;;;;;1.00;1.00;;;;;;;;;;5009256;28;20050;-80
2023/10/26 05:08:51;;;;;;;0.35;0.35;;;;;;;;;;4993761;28;20367;-80
2023/10/26 05:11:19;;;;;;;0.60;0.60;;;;;;;;;;5009498;28;20046;-80
2023/10/26 05:13:48;;;;;;;0.60;0.60;;;;;;;;;;4995739;28;20046;-80
2023/10/26 05:16:15;;;;;;;0.55;0.55;;;;;;;;;;4997452;28;20046;-81
2023/10/26 05:18:42;;;;;;;1.63;0.70;;;;;;;;;;5012692;28;20042;-80
2023/10/26 05:21:09;;;;;;;2.15;0.70;;;;;;;;;;5012952;28;20061;-80
2023/10/26 05:23:39;;;;;;;0.80;0.80;;;;;;;;;;5012544;28;20488;-80
2023/10/26 05:26:07;;;;;;;1.23;0.68;;;;;;;;;;4990533;28;20120;-80
2023/10/26 05:28:34;;;;;;;0.95;0.70;;;;;;;;;;4997766;28;20054;-80
2023/10/26 05:31:01;;;;;;;0.80;0.73;;;;;;;;;;5012200;28;20046;-80
2023/10/26 05:33:28;;;;;;;0.68;0.57;;;;;;;;;;4997774;28;20050;-80
2023/10/26 05:35:58;;;;;;;0.75;0.75;;;;;;;;;;5011702;28;20051;-80
2023/10/26 05:38:25;;;;;;;2.25;0.90;;;;;;;;;;5011821;28;20081;-79
2023/10/26 05:40:53;;;;;;;0.70;0.70;;;;;;;;;;5011556;28;20057;-79
2023/10/26 05:43:20;;;;;;;0.70;0.70;;;;;;;;;;5011160;28;20573;-80
2023/10/26 05:45:47;;;;;;;0.80;0.80;;;;;;;;;;4996584;28;20065;-80
2023/10/26 05:48:16;;;;;;;0.70;0.70;;;;;;;;;;4996433;28;20133;-80
2023/10/26 05:50:44;;;;;;;2.15;0.80;;;;;;;;;;5011425;28;20054;-80
2023/10/26 05:53:11;;;;;;;0.90;0.90;;;;;;;;;;5011310;28;20046;-80
2023/10/26 05:55:41;;;;;;;1.83;0.70;;;;;;;;;;4996004;28;20051;-79
2023/10/26 05:58:09;;;;;;;1.20;1.20;;;;;;;;;;5011328;28;20050;-79
2023/10/26 06:00:37;;;;;;;1.95;1.27;;;;;;;;;;4996243;28;20046;-79
2023/10/26 06:03:05;;;;;;;1.70;1.50;;;;;;;;;;4995772;28;20078;-80
2023/10/26 06:05:32;;;;;;;1.17;1.17;;;;;;;;;;5010738;28;20056;-80
2023/10/26 06:07:59;;;;;;;0.98;0.98;;;;;;;;;;4995611;28;20521;-80
2023/10/26 06:10:27;;;;;;;0.70;0.70;;;;;;;;;;5010738;28;20050;-80
2023/10/26 06:12:54;;;;;;;1.00;1.00;;;;;;;;;;5009971;28;20108;-79
2023/10/26 06:15:21;;;;;;;1.30;0.88;;;;;;;;;;4995384;28;20050;-80
2023/10/26 06:17:48;;;;;;;1.05;1.05;;;;;;;;;;4994940;28;20043;-80
2023/10/26 06:20:16;;;;;;;1.65;1.38;;;;;;;;;;5010315;28;20454;-80
2023/10/26 06:22:44;;;;;;;2.13;1.80;;;;;;;;;;5009822;28;20050;-79
2023/10/26 06:25:11;;;;;;;2.13;2.00;;;;;;;;;;5009949;28;20108;-80
2023/10/26 06:27:38;;;;;;;1.90;1.77;;;;;;;;;;5009814;28;20062;-79
2023/10/26 06:30:06;;;;;;;14.05;9.07;;;;;;;;;;4995200;28;20065;-79
2023/10/26 06:32:35;;;;;;;19.55;10.63;;;;;;;;;;5009920;28;20053;-79
2023/10/26 06:35:03;;;;;;;64.72;37.92;;;;;;;;;;4995014;28;20050;-80
2023/10/26 06:37:30;;;;;;;37.70;21.83;;;;;;;;;;5009623;28;20066;-80
2023/10/26 06:39:57;;;;;;;7.88;5.55;;;;;;;;;;4994477;28;20054;-79
2023/10/26 06:42:25;;;;;;;33.38;22.23;;;;;;;;;;4994437;28;20116;-80
2023/10/26 06:44:52;;;;;;;22.35;13.90;;;;;;;;;;4994457;28;20047;-80
2023/10/26 06:51:05;;;;;;;2.70;1.63;;;;;;;;;;4974469;28;20046;-80
2023/10/26 06:53:33;;;;;;;8.02;6.57;;;;;;;;;;4994121;28;20046;-80
2023/10/26 06:56:00;;;;;;;16.55;9.82;;;;;;;;;;4994150;28;20117;-80
2023/10/26 06:58:27;;;;;;;18.35;12.93;;;;;;;;;;4994050;28;20050;-80
2023/10/26 07:00:55;;;;;;;17.95;13.00;;;;;;;;;;5008956;28;20077;-79
2023/10/26 07:03:22;;;;;;;13.50;9.52;;;;;;;;;;5008729;28;20112;-80
2023/10/26 07:05:50;;;;;;;40.97;25.00;;;;;;;;;;4993893;28;20089;-79
2023/10/26 07:08:17;;;;;;;16.88;10.50;;;;;;;;;;5008765;28;20075;-79
2023/10/26 07:10:44;;;;;;;13.07;8.05;;;;;;;;;;4993436;28;20100;-80
2023/10/26 07:13:12;;;;;;;4.00;3.58;;;;;;;;;;4993768;28;20482;-80
2023/10/26 07:15:39;;;;;;;1.50;1.45;;;;;;;;;;5008430;28;20092;-79
2023/10/26 07:18:06;;;;;;;9.07;6.88;;;;;;;;;;5008407;28;20505;-79
2023/10/26 07:20:34;;;;;;;14.30;10.85;;;;;;;;;;5008407;28;20050;-79
2023/10/26 07:23:01;;;;;;;10.77;9.02;;;;;;;;;;5008172;28;20046;-78
2023/10/26 07:25:28;;;;;;;3.70;3.25;;;;;;;;;;5008665;28;20050;-79
2023/10/26 07:27:56;;;;;;;5.60;4.05;;;;;;;;;;4993269;28;20061;-79
2023/10/26 07:30:23;;;;;;;6.60;5.82;;;;;;;;;;5008246;28;20046;-79
2023/10/26 07:32:50;;;;;;;4.57;4.18;;;;;;;;;;5007954;28;20133;-78
2023/10/26 07:35:17;;;;;;;5.38;4.88;;;;;;;;;;5007799;28;20105;-80
2023/10/26 07:37:45;;;;;;;3.40;3.20;;;;;;;;;;4992937;28;20053;-79
2023/10/26 07:40:31;;;;;;;4.97;3.78;;;;;;;;;;4993140;28;20056;-79
2023/10/26 07:42:58;;;;;;;4.53;2.15;;;;;;;;;;5007712;28;20528;-79
2023/10/26 07:45:26;;;;;;;3.35;1.85;;;;;;;;;;4993090;28;20389;-79
2023/10/26 07:47:55;;;;;;;1.90;1.80;;;;;;;;;;4992762;28;20057;-79
2023/10/26 07:50:28;;;;;;;1.80;1.70;;;;;;;;;;5007300;28;20484;-79
2023/10/26 07:52:56;;;;;;;1.10;1.10;;;;;;;;;;5007681;28;20456;-79
2023/10/26 07:55:23;;;;;;;1.25;1.15;;;;;;;;;;4992850;28;20057;-79
2023/10/26 07:57:51;;;;;;;1.30;1.13;;;;;;;;;;4992829;28;20046;-79
2023/10/26 08:00:18;;;;;;;1.23;1.13;;;;;;;;;;5007713;28;20517;-79
2023/10/26 08:02:45;;;;;;;0.90;0.90;;;;;;;;;;4992669;28;20517;-79
2023/10/26 08:05:15;;;;;;;1.13;0.90;;;;;;;;;;4992950;28;20054;-80
2023/10/26 08:07:44;;;;;;;3.83;0.90;;;;;;;;;;4992478;28;20184;-79
2023/10/26 08:10:11;;;;;;;0.95;0.95;;;;;;;;;;4996159;28;20046;-80
2023/10/26 08:12:39;;;;;;;0.73;0.68;;;;;;;;;;5011111;28;20428;-80
2023/10/26 08:15:07;;;;;;;0.90;0.90;;;;;;;;;;5010580;28;20098;-80
2023/10/26 08:17:54;;;;;;;1.98;1.73;;;;;;;;;;5007993;28;20127;-80
2023/10/26 08:20:21;;;;;;;1.88;1.77;;;;;;;;;;4995580;28;20133;-81
2023/10/26 08:22:49;;;;;;;0.70;0.70;;;;;;;;;;4995236;28;20061;-80
2023/10/26 08:25:17;;;;;;;0.77;0.70;;;;;;;;;;5010794;28;20134;-80
2023/10/26 08:27:51;;;;;;;2.30;1.00;;;;;;;;;;4995313;28;20054;-80
2023/10/26 08:30:18;;;;;;;0.73;0.73;;;;;;;;;;4995633;28;20050;-80
2023/10/26 08:32:48;;;;;;;0.80;0.80;;;;;;;;;;5010156;28;20065;-80
2023/10/26 08:35:15;;;;;;;1.25;0.85;;;;;;;;;;4995463;28;20050;-81
2023/10/26 08:37:43;;;;;;;1.00;0.90;;;;;;;;;;4994844;28;20050;-80
2023/10/26 08:40:13;;;;;;;1.00;0.68;;;;;;;;;;5010086;28;20047;-80
2023/10/26 08:42:43;;;;;;;2.30;0.88;;;;;;;;;;5010143;28;20051;-79
2023/10/26 08:45:20;;;;;;;1.77;0.90;;;;;;;;;;4994674;28;20050;-80
2023/10/26 08:47:49;;;;;;;1.00;1.00;;;;;;;;;;4993063;28;20046;-79
2023/10/26 08:50:17;;;;;;;3.42;1.38;;;;;;;;;;5012925;28;20050;-80
2023/10/26 08:52:45;;;;;;;1.10;1.10;;;;;;;;;;5012645;28;20056;-80
2023/10/26 08:55:12;;;;;;;4.57;1.70;;;;;;;;;;5012993;28;20050;-79
2023/10/26 08:57:46;;;;;;;0.90;0.90;;;;;;;;;;4998857;28;20190;-80
2023/10/26 09:00:15;;;;;;;0.88;0.88;;;;;;;;;;4998194;28;20045;-80
2023/10/26 09:02:42;;;;;;;0.80;0.80;;;;;;;;;;4997309;28;20078;-79
2023/10/26 09:05:11;;;;;;;0.98;0.90;;;;;;;;;;5013036;28;20446;-80
2023/10/26 09:07:38;;;;;;;0.80;0.80;;;;;;;;;;5012707;28;20073;-81
2023/10/26 09:10:06;;;;;;;1.50;0.80;;;;;;;;;;4997569;28;20474;-80
2023/10/26 09:12:34;;;;;;;0.85;0.85;;;;;;;;;;5012141;28;20042;-80
2023/10/26 09:15:02;;;;;;;4.25;1.27;;;;;;;;;;5012208;28;20051;-79
2023/10/26 09:17:31;;;;;;;2.25;0.90;;;;;;;;;;5012194;28;20054;-80
2023/10/26 09:19:58;;;;;;;2.38;1.00;;;;;;;;;;4997377;28;20050;-79
2023/10/26 09:22:36;;;;;;;2.95;0.80;;;;;;;;;;4997136;28;20046;-80
2023/10/26 09:25:07;;;;;;;15.82;1.60;;;;;;;;;;5011899;28;20054;-79
2023/10/26 09:27:35;;;;;;;2.38;0.70;;;;;;;;;;5011737;28;20051;-81
2023/10/26 09:30:03;;;;;;;2.65;0.90;;;;;;;;;;4996582;28;20054;-80
2023/10/26 09:32:33;;;;;;;0.90;0.82;;;;;;;;;;5011754;28;20042;-81
2023/10/26 09:35:01;;;;;;;1.27;1.17;;;;;;;;;;4996464;28;20049;-79
2023/10/26 09:37:28;;;;;;;1.63;0.93;;;;;;;;;;5011651;28;20050;-80
2023/10/26 09:39:56;;;;;;;3.35;1.40;;;;;;;;;;4996216;28;20053;-80
2023/10/26 09:42:42;;;;;;;8.07;1.35;;;;;;;;;;4995929;28;20064;-79
2023/10/26 09:45:09;;;;;;;1.80;1.25;;;;;;;;;;5011344;28;20085;-80
2023/10/26 09:47:37;;;;;;;2.47;1.30;;;;;;;;;;5011340;28;20054;-80
2023/10/26 09:50:05;;;;;;;1.08;1.08;;;;;;;;;;4996397;28;20066;-81
2023/10/26 09:52:32;;;;;;;1.05;1.02;;;;;;;;;;5012138;28;20088;-80
2023/10/26 09:55:00;;;;;;;2.55;1.40;;;;;;;;;;4996116;28;20042;-79
2023/10/26 09:57:30;;;;;;;1.42;1.33;;;;;;;;;;5011912;28;20042;-81
2023/10/26 09:59:58;;;;;;;2.85;1.40;;;;;;;;;;5010661;28;20536;-81
2023/10/26 10:02:27;;;;;;;2.85;1.42;;;;;;;;;;5010981;28;20080;-80
2023/10/26 10:04:54;;;;;;;3.63;1.75;;;;;;;;;;4996137;28;20046;-80
2023/10/26 10:07:40;;;;;;;1.30;1.20;;;;;;;;;;5010939;28;20050;-80
2023/10/26 10:10:08;;;;;;;1.13;0.90;;;;;;;;;;4984188;28;20055;-80
2023/10/26 10:12:38;;;;;;;2.42;1.10;;;;;;;;;;4992434;28;20421;-80
2023/10/26 10:15:09;;;;;;;6.68;1.23;;;;;;;;;;4988405;28;20050;-80
2023/10/26 10:17:56;;;;;;;16.25;2.30;;;;;;;;;;4995806;28;20046;-80
2023/10/26 10:20:24;;;;;;;1.73;1.40;;;;;;;;;;5010715;28;20053;-80
2023/10/26 10:22:58;;;;;;;1.20;1.20;;;;;;;;;;5010400;28;20102;-81
2023/10/26 10:25:56;;;;;;;1.20;1.20;;;;;;;;;;4995555;28;20571;-81
2023/10/26 10:28:39;;;;;;;1.42;1.42;;;;;;;;;;4990728;28;20062;-80
2023/10/26 10:31:07;;;;;;;1.67;1.58;;;;;;;;;;4995229;28;20046;-80
2023/10/26 10:33:34;;;;;;;2.13;1.20;;;;;;;;;;4995755;28;20050;-80
2023/10/26 10:36:02;;;;;;;5.30;1.60;;;;;;;;;;4995046;28;20050;-80
2023/10/26 10:38:30;;;;;;;1.40;1.27;;;;;;;;;;5009969;28;20112;-80
2023/10/26 10:41:05;;;;;;;2.72;1.13;;;;;;;;;;5009985;28;20234;-80
2023/10/26 10:43:37;;;;;;;2.53;1.00;;;;;;;;;;4994731;28;20069;-80
2023/10/26 10:46:14;;;;;;;0.85;0.80;;;;;;;;;;4986908;28;20133;-79
2023/10/26 10:48:57;;;;;;;1.00;1.00;;;;;;;;;;5009932;28;20555;-80
2023/10/26 10:51:28;;;;;;;0.95;0.95;;;;;;;;;;4994904;28;20421;-80
2023/10/26 10:53:56;;;;;;;1.60;1.17;;;;;;;;;;4994316;28;20885;-79
2023/10/26 10:56:27;;;;;;;3.20;0.82;;;;;;;;;;4994465;28;20485;-79
2023/10/26 10:58:56;;;;;;;2.90;1.27;;;;;;;;;;5009362;28;20105;-80
2023/10/26 11:01:23;;;;;;;1.20;1.10;;;;;;;;;;4994561;28;20457;-81
2023/10/26 11:03:51;;;;;;;7.40;1.80;;;;;;;;;;4994912;28;20093;-80
2023/10/26 11:06:19;;;;;;;5.97;1.73;;;;;;;;;;5009817;28;20085;-80
2023/10/26 11:08:46;;;;;;;3.58;1.20;;;;;;;;;;4994248;28;20133;-80
2023/10/26 11:11:26;;;;;;;1.02;1.00;;;;;;;;;;4993327;28;20047;-80
2023/10/26 11:14:12;;;;;;;0.80;0.80;;;;;;;;;;5008852;28;20050;-80
2023/10/26 11:16:42;;;;;;;2.53;1.23;;;;;;;;;;4993972;28;20050;-80
2023/10/26 11:19:09;;;;;;;3.60;1.00;;;;;;;;;;5008957;28;20509;-80
2023/10/26 11:21:36;;;;;;;9.70;1.70;;;;;;;;;;5009131;28;20050;-80
2023/10/26 11:24:04;;;;;;;1.42;0.70;;;;;;;;;;4994168;28;20421;-80
2023/10/26 11:26:31;;;;;;;1.02;0.90;;;;;;;;;;5008850;28;20056;-80
2023/10/26 11:29:03;;;;;;;7.43;1.20;;;;;;;;;;5008955;28;20476;-80
2023/10/26 11:31:41;;;;;;;1.48;0.80;;;;;;;;;;4993809;28;20043;-81
2023/10/26 11:34:10;;;;;;;2.30;0.85;;;;;;;;;;5008839;28;20050;-80
2023/10/26 11:36:37;;;;;;;0.80;0.80;;;;;;;;;;4993590;28;20053;-80
2023/10/26 11:39:05;;;;;;;0.90;0.90;;;;;;;;;;4993899;28;20049;-80
2023/10/26 11:41:33;;;;;;;25.77;2.75;;;;;;;;;;5008749;28;20508;-81
2023/10/26 11:44:01;;;;;;;1.45;0.93;;;;;;;;;;5008537;28;20132;-80
2023/10/26 11:46:29;;;;;;;0.88;0.88;;;;;;;;;;4998597;28;20054;-80
2023/10/26 11:48:56;;;;;;;1.40;0.90;;;;;;;;;;5011976;28;20483;-81
2023/10/26 11:51:24;;;;;;;0.95;0.65;;;;;;;;;;5011736;28;20046;-82
2023/10/26 11:53:51;;;;;;;4.20;1.00;;;;;;;;;;4996130;28;20046;-81
2023/10/26 11:56:18;;;;;;;0.90;0.52;;;;;;;;;;4996858;28;20043;-81
2023/10/26 11:58:46;;;;;;;1.85;0.77;;;;;;;;;;5012010;28;20493;-84
2023/10/26 12:01:13;;;;;;;0.68;0.68;;;;;;;;;;4996606;28;20055;-81
2023/10/26 12:03:44;;;;;;;17.13;1.98;;;;;;;;;;4995859;28;20046;-81
2023/10/26 12:06:13;;;;;;;3.08;0.60;;;;;;;;;;5011713;28;20416;-81
2023/10/26 12:08:40;;;;;;;3.60;0.80;;;;;;;;;;5011044;28;20050;-81
2023/10/26 12:11:07;;;;;;;1.38;0.70;;;;;;;;;;5010826;28;20417;-81
2023/10/26 12:13:35;;;;;;;1.25;0.80;;;;;;;;;;4991156;28;20473;-81
2023/10/26 12:16:03;;;;;;;1.77;0.93;;;;;;;;;;4994209;28;20133;-81
2023/10/26 12:18:30;;;;;;;0.90;0.90;;;;;;;;;;4995451;28;20050;-81
2023/10/26 12:20:57;;;;;;;0.60;0.60;;;;;;;;;;5010205;28;20050;-82
2023/10/26 12:23:25;;;;;;;0.70;0.70;;;;;;;;;;4999132;28;20061;-80
2023/10/26 12:25:52;;;;;;;2.47;0.93;;;;;;;;;;5013831;28;20501;-80
2023/10/26 12:28:19;;;;;;;0.60;0.60;;;;;;;;;;5014156;28;20058;-81
2023/10/26 12:30:53;;;;;;;0.50;0.50;;;;;;;;;;4998149;28;20054;-81
2023/10/26 12:33:21;;;;;;;0.88;0.70;;;;;;;;;;4998175;28;20134;-81
2023/10/26 12:35:48;;;;;;;0.50;0.50;;;;;;;;;;5013230;28;20052;-83
2023/10/26 12:38:19;;;;;;;1.33;0.52;;;;;;;;;;5013395;28;20050;-81
2023/10/26 12:40:48;;;;;;;0.80;0.80;;;;;;;;;;5013543;28;20050;-80
2023/10/26 12:43:15;;;;;;;1.98;1.27;;;;;;;;;;5013164;28;20054;-81
2023/10/26 12:45:42;;;;;;;2.08;0.80;;;;;;;;;;4998088;28;20073;-81
2023/10/26 12:48:09;;;;;;;1.15;0.50;;;;;;;;;;4998139;28;20060;-80
2023/10/26 12:50:37;;;;;;;4.22;1.35;;;;;;;;;;5012543;28;20053;-80
2023/10/26 12:53:04;;;;;;;3.58;0.85;;;;;;;;;;5012781;28;20046;-81
2023/10/26 12:55:32;;;;;;;2.50;0.52;;;;;;;;;;5012914;28;20699;-81
2023/10/26 12:58:00;;;;;;;3.20;0.70;;;;;;;;;;4997739;28;20046;-81
2023/10/26 13:00:27;;;;;;;2.42;0.70;;;;;;;;;;5012691;28;20050;-81
2023/10/26 13:02:54;;;;;;;1.30;0.80;;;;;;;;;;4997738;28;20129;-81
2023/10/26 13:05:22;;;;;;;0.57;0.57;;;;;;;;;;5012679;28;20116;-82
2023/10/26 13:07:49;;;;;;;3.00;0.90;;;;;;;;;;5011919;28;20173;-81
2023/10/26 13:10:16;;;;;;;3.72;1.05;;;;;;;;;;4997660;28;20101;-81
2023/10/26 13:12:47;;;;;;;4.55;2.00;;;;;;;;;;4997104;28;20047;-80
2023/10/26 13:15:14;;;;;;;1.00;1.00;;;;;;;;;;5011980;28;20130;-81
2023/10/26 13:17:47;;;;;;;5.68;1.30;;;;;;;;;;5011293;28;20092;-81
2023/10/26 13:20:15;;;;;;;1.35;0.80;;;;;;;;;;4997011;28;20042;-81
2023/10/26 13:22:42;;;;;;;0.60;0.60;;;;;;;;;;5011743;28;20535;-81
2023/10/26 13:25:09;;;;;;;0.80;0.77;;;;;;;;;;4996611;28;20472;-81
2023/10/26 13:27:36;;;;;;;2.83;0.80;;;;;;;;;;5011804;28;20051;-80
2023/10/26 13:30:05;;;;;;;0.77;0.65;;;;;;;;;;5011844;28;20476;-81
2023/10/26 13:32:33;;;;;;;3.35;0.90;;;;;;;;;;5010973;28;20050;-80
2023/10/26 13:35:00;;;;;;;0.98;0.77;;;;;;;;;;4995361;28;20047;-81
2023/10/26 13:37:27;;;;;;;1.25;0.80;;;;;;;;;;4996493;28;20473;-81
2023/10/26 13:39:55;;;;;;;0.70;0.70;;;;;;;;;;5010994;28;20046;-81
2023/10/26 13:42:22;;;;;;;1.50;0.70;;;;;;;;;;5011010;28;20068;-80
2023/10/26 13:44:49;;;;;;;0.80;0.80;;;;;;;;;;4995735;28;20058;-80
2023/10/26 13:47:16;;;;;;;6.57;1.10;;;;;;;;;;4995854;28;20061;-81
2023/10/26 13:49:44;;;;;;;2.45;1.00;;;;;;;;;;5010541;28;20058;-80
2023/10/26 13:52:12;;;;;;;9.13;1.55;;;;;;;;;;4995938;28;20081;-80
2023/10/26 13:54:39;;;;;;;1.90;1.20;;;;;;;;;;4995424;28;20192;-80
2023/10/26 13:57:06;;;;;;;0.93;0.80;;;;;;;;;;4996089;28;20483;-81
2023/10/26 13:59:56;;;;;;;3.20;1.00;;;;;;;;;;5014020;28;20046;-81
2023/10/26 14:02:24;;;;;;;3.25;1.17;;;;;;;;;;5010493;28;20050;-81
2023/10/26 14:04:51;;;;;;;0.77;0.77;;;;;;;;;;5010310;28;20452;-80
2023/10/26 14:07:18;;;;;;;1.85;1.00;;;;;;;;;;5010340;28;20051;-81
2023/10/26 14:09:45;;;;;;;1.10;1.08;;;;;;;;;;4995370;28;20049;-80
2023/10/26 14:12:14;;;;;;;2.90;1.10;;;;;;;;;;4995420;28;20054;-81
2023/10/26 14:14:41;;;;;;;1.33;1.20;;;;;;;;;;4995177;28;20054;-81
2023/10/26 14:17:09;;;;;;;4.47;1.10;;;;;;;;;;5011250;28;20050;-81
2023/10/26 14:19:36;;;;;;;5.75;1.35;;;;;;;;;;5010252;28;20042;-81
2023/10/26 14:22:03;;;;;;;1.58;1.00;;;;;;;;;;5010130;28;20085;-80
2023/10/26 14:24:31;;;;;;;1.65;0.70;;;;;;;;;;5010136;28;20564;-79
2023/10/26 14:26:58;;;;;;;8.57;0.80;;;;;;;;;;4994717;28;20537;-80
2023/10/26 14:29:25;;;;;;;0.80;0.80;;;;;;;;;;5010175;28;20117;-80
2023/10/26 14:31:52;;;;;;;3.20;0.90;;;;;;;;;;5009788;28;20049;-81
2023/10/26 14:34:20;;;;;;;3.53;0.80;;;;;;;;;;5009717;28;20042;-80
2023/10/26 14:36:47;;;;;;;1.83;0.80;;;;;;;;;;5009531;28;20046;-80
2023/10/26 14:39:14;;;;;;;2.00;0.80;;;;;;;;;;4994555;28;20066;-81
2023/10/26 14:41:41;;;;;;;4.78;1.10;;;;;;;;;;5009074;28;20050;-79
2023/10/26 14:44:09;;;;;;;1.25;0.82;;;;;;;;;;5009576;28;20465;-80
2023/10/26 14:46:36;;;;;;;0.82;0.70;;;;;;;;;;5009205;28;20056;-81
2023/10/26 14:49:04;;;;;;;2.90;1.00;;;;;;;;;;4987492;28;20078;-80
2023/10/26 14:51:32;;;;;;;1.30;1.20;;;;;;;;;;5009309;28;20057;-80
2023/10/26 14:54:00;;;;;;;1.45;1.00;;;;;;;;;;5008950;28;20501;-81